sensor_id;sensor_type;location;lat;lon;timestamp;temperature;humidity
21318;DHT22;10818;50.830;6.524;2023-11-21T00:02:48;9.60;99.90
21318;DHT22;10818;50.830;6.524;2023-11-21T00:07:49;9.70;99.90
21318;DHT22;10818;50.830;6.524;2023-11-21T00:12:49;9.60;99.90
21318;DHT22;10818;50.830;6.524;2023-11-21T00:17:50;9.60;99.90
21318;DHT22;10818;50.830;6.524;2023-11-21T00:22:50;9.60;99.90
21318;DHT22;10818;50.830;6.524;2023-11-21T00:27:51;9.70;99.90
21318;DHT22;10818;50.830;6.524;2023-11-21T00:32:51;9.70;99.90
21318;DHT22;10818;50.830;6.524;2023-11-21T00:37:52;9.70;99.90
21318;DHT22;10818;50.830;6.524;2023-11-21T00:42:52;9.70;99.90
21318;DHT22;10818;50.830;6.524;2023-11-21T00:47:53;9.90;99.90
21318;DHT22;10818;50.830;6.524;2023-11-21T00:52:53;9.90;99.90
21318;DHT22;10818;50.830;6.524;2023-11-21T00:57:54;9.90;99.90
21318;DHT22;10818;50.830;6.524;2023-11-21T01:02:54;10.00;99.90
21318;DHT22;10818;50.830;6.524;2023-11-21T01:07:55;10.00;99.90
21318;DHT22;10818;50.830;6.524;2023-11-21T01:12:55;10.00;99.90
21318;DHT22;10818;50.830;6.524;2023-11-21T01:17:56;10.10;99.90
21318;DHT22;10818;50.830;6.524;2023-11-21T01:22:56;10.00;99.90
21318;DHT22;10818;50.830;6.524;2023-11-21T01:27:57;10.10;99.90
21318;DHT22;10818;50.830;6.524;2023-11-21T01:32:57;10.10;99.90
21318;DHT22;10818;50.830;6.524;2023-11-21T01:37:58;10.10;99.90
21318;DHT22;10818;50.830;6.524;2023-11-21T01:42:58;10.10;99.90
21318;DHT22;10818;50.830;6.524;2023-11-21T01:47:59;9.90;99.90
21318;DHT22;10818;50.830;6.524;2023-11-21T01:53:01;10.00;99.90
21318;DHT22;10818;50.830;6.524;2023-11-21T01:58:01;10.00;99.90
21318;DHT22;10818;50.830;6.524;2023-11-21T02:03:02;10.00;99.90
21318;DHT22;10818;50.830;6.524;2023-11-21T02:08:04;10.00;99.90
21318;DHT22;10818;50.830;6.524;2023-11-21T02:13:04;10.00;99.90
21318;DHT22;10818;50.830;6.524;2023-11-21T02:18:06;10.00;99.90
21318;DHT22;10818;50.830;6.524;2023-11-21T02:23:06;10.10;99.90
21318;DHT22;10818;50.830;6.524;2023-11-21T02:28:07;10.00;99.90
21318;DHT22;10818;50.830;6.524;2023-11-21T02:33:08;9.90;99.90
21318;DHT22;10818;50.830;6.524;2023-11-21T02:38:08;10.00;99.90
21318;DHT22;10818;50.830;6.524;2023-11-21T02:43:09;9.80;99.90
21318;DHT22;10818;50.830;6.524;2023-11-21T02:48:09;9.80;99.90
21318;DHT22;10818;50.830;6.524;2023-11-21T02:53:10;10.00;99.90
21318;DHT22;10818;50.830;6.524;2023-11-21T02:58:11;10.00;99.90
21318;DHT22;10818;50.830;6.524;2023-11-21T03:03:11;9.90;99.90
21318;DHT22;10818;50.830;6.524;2023-11-21T03:08:12;10.00;99.90
21318;DHT22;10818;50.830;6.524;2023-11-21T03:13:12;10.10;99.90
21318;DHT22;10818;50.830;6.524;2023-11-21T03:18:13;10.00;99.90
21318;DHT22;10818;50.830;6.524;2023-11-21T03:23:13;10.10;99.90
21318;DHT22;10818;50.830;6.524;2023-11-21T03:28:14;10.10;99.90
21318;DHT22;10818;50.830;6.524;2023-11-21T03:33:15;10.10;99.90
21318;DHT22;10818;50.830;6.524;2023-11-21T03:38:15;10.10;99.90
21318;DHT22;10818;50.830;6.524;2023-11-21T03:43:16;10.20;99.90
21318;DHT22;10818;50.830;6.524;2023-11-21T03:48:16;10.20;99.90
21318;DHT22;10818;50.830;6.524;2023-11-21T03:53:17;10.10;99.90
21318;DHT22;10818;50.830;6.524;2023-11-21T03:58:17;10.20;99.90
21318;DHT22;10818;50.830;6.524;2023-11-21T04:03:18;10.20;99.90
21318;DHT22;10818;50.830;6.524;2023-11-21T04:08:19;10.20;99.90
21318;DHT22;10818;50.830;6.524;2023-11-21T04:13:20;10.30;99.90
21318;DHT22;10818;50.830;6.524;2023-11-21T04:18:20;10.10;99.90
21318;DHT22;10818;50.830;6.524;2023-11-21T04:23:21;10.10;99.90
21318;DHT22;10818;50.830;6.524;2023-11-21T04:28:21;10.10;99.90
21318;DHT22;10818;50.830;6.524;2023-11-21T04:33:22;10.10;99.90
21318;DHT22;10818;50.830;6.524;2023-11-21T04:38:22;10.10;99.90
21318;DHT22;10818;50.830;6.524;2023-11-21T04:43:23;10.10;99.90
21318;DHT22;10818;50.830;6.524;2023-11-21T04:48:23;10.00;99.90
21318;DHT22;10818;50.830;6.524;2023-11-21T04:53:24;9.80;99.90
21318;DHT22;10818;50.830;6.524;2023-11-21T04:58:24;9.80;99.90
21318;DHT22;10818;50.830;6.524;2023-11-21T05:03:25;9.80;99.90
21318;DHT22;10818;50.830;6.524;2023-11-21T05:08:26;10.00;99.90
21318;DHT22;10818;50.830;6.524;2023-11-21T05:13:27;9.80;99.90
21318;DHT22;10818;50.830;6.524;2023-11-21T05:18:27;10.00;99.90
21318;DHT22;10818;50.830;6.524;2023-11-21T05:23:30;10.00;99.90
21318;DHT22;10818;50.830;6.524;2023-11-21T05:28:30;10.00;99.90
21318;DHT22;10818;50.830;6.524;2023-11-21T05:33:30;10.10;99.90
21318;DHT22;10818;50.830;6.524;2023-11-21T05:38:33;10.10;99.90
21318;DHT22;10818;50.830;6.524;2023-11-21T05:43:34;10.20;99.90
21318;DHT22;10818;50.830;6.524;2023-11-21T05:48:35;10.20;99.90
21318;DHT22;10818;50.830;6.524;2023-11-21T05:53:39;10.10;99.90
21318;DHT22;10818;50.830;6.524;2023-11-21T05:58:39;10.10;99.90
21318;DHT22;10818;50.830;6.524;2023-11-21T06:03:40;10.20;99.90
21318;DHT22;10818;50.830;6.524;2023-11-21T06:08:40;10.10;99.90
21318;DHT22;10818;50.830;6.524;2023-11-21T06:13:41;10.10;99.90
21318;DHT22;10818;50.830;6.524;2023-11-21T06:18:42;10.20;99.90
21318;DHT22;10818;50.830;6.524;2023-11-21T06:23:43;10.20;99.90
21318;DHT22;10818;50.830;6.524;2023-11-21T06:28:43;10.10;99.90
21318;DHT22;10818;50.830;6.524;2023-11-21T06:33:44;10.30;99.90
21318;DHT22;10818;50.830;6.524;2023-11-21T06:38:44;10.30;99.90
21318;DHT22;10818;50.830;6.524;2023-11-21T06:43:46;10.20;99.90
21318;DHT22;10818;50.830;6.524;2023-11-21T06:48:46;10.30;99.90
21318;DHT22;10818;50.830;6.524;2023-11-21T06:53:48;10.30;99.90
21318;DHT22;10818;50.830;6.524;2023-11-21T06:58:49;10.40;99.90
21318;DHT22;10818;50.830;6.524;2023-11-21T07:03:50;10.20;99.90
21318;DHT22;10818;50.830;6.524;2023-11-21T07:08:50;10.30;99.90
21318;DHT22;10818;50.830;6.524;2023-11-21T07:13:51;10.40;99.90
21318;DHT22;10818;50.830;6.524;2023-11-21T07:18:52;10.30;99.90
21318;DHT22;10818;50.830;6.524;2023-11-21T07:23:53;10.30;99.90
21318;DHT22;10818;50.830;6.524;2023-11-21T07:28:54;10.30;99.90
21318;DHT22;10818;50.830;6.524;2023-11-21T07:33:55;10.40;99.90
21318;DHT22;10818;50.830;6.524;2023-11-21T07:38:57;10.30;99.90
21318;DHT22;10818;50.830;6.524;2023-11-21T07:43:58;10.30;99.90
21318;DHT22;10818;50.830;6.524;2023-11-21T07:48:58;10.30;99.90
21318;DHT22;10818;50.830;6.524;2023-11-21T07:53:59;10.30;99.90
21318;DHT22;10818;50.830;6.524;2023-11-21T07:58:59;10.40;99.90
21318;DHT22;10818;50.830;6.524;2023-11-21T08:04:00;10.50;99.90
21318;DHT22;10818;50.830;6.524;2023-11-21T08:09:03;10.60;99.90
21318;DHT22;10818;50.830;6.524;2023-11-21T08:14:04;10.80;99.90
21318;DHT22;10818;50.830;6.524;2023-11-21T08:19:05;10.70;99.90
21318;DHT22;10818;50.830;6.524;2023-11-21T08:24:06;10.70;99.90
21318;DHT22;10818;50.830;6.524;2023-11-21T08:29:10;10.70;99.90
21318;DHT22;10818;50.830;6.524;2023-11-21T08:34:12;10.80;99.90
21318;DHT22;10818;50.830;6.524;2023-11-21T08:39:13;10.80;99.90
21318;DHT22;10818;50.830;6.524;2023-11-21T08:44:13;10.80;99.90
21318;DHT22;10818;50.830;6.524;2023-11-21T08:49:14;10.80;99.90
21318;DHT22;10818;50.830;6.524;2023-11-21T08:54:15;10.80;99.90
21318;DHT22;10818;50.830;6.524;2023-11-21T08:59:16;10.80;99.90
21318;DHT22;10818;50.830;6.524;2023-11-21T09:04:16;10.90;99.90
21318;DHT22;10818;50.830;6.524;2023-11-21T09:09:17;11.00;99.90
21318;DHT22;10818;50.830;6.524;2023-11-21T09:14:18;11.20;99.90
21318;DHT22;10818;50.830;6.524;2023-11-21T09:19:18;11.20;99.90
21318;DHT22;10818;50.830;6.524;2023-11-21T09:24:19;11.40;99.90
21318;DHT22;10818;50.830;6.524;2023-11-21T09:29:20;11.50;99.90
21318;DHT22;10818;50.830;6.524;2023-11-21T09:34:21;11.70;99.90
21318;DHT22;10818;50.830;6.524;2023-11-21T09:39:21;11.60;99.90
21318;DHT22;10818;50.830;6.524;2023-11-21T09:44:22;11.70;99.90
21318;DHT22;10818;50.830;6.524;2023-11-21T09:49:26;11.60;99.90
21318;DHT22;10818;50.830;6.524;2023-11-21T09:54:27;11.60;99.90
21318;DHT22;10818;50.830;6.524;2023-11-21T09:59:30;11.60;99.90
21318;DHT22;10818;50.830;6.524;2023-11-21T10:04:30;11.80;99.90
21318;DHT22;10818;50.830;6.524;2023-11-21T10:09:31;12.10;99.90
21318;DHT22;10818;50.830;6.524;2023-11-21T10:14:32;12.30;99.90
21318;DHT22;10818;50.830;6.524;2023-11-21T10:19:33;12.30;99.90
21318;DHT22;10818;50.830;6.524;2023-11-21T10:24:35;12.60;99.90
21318;DHT22;10818;50.830;6.524;2023-11-21T10:29:37;12.70;99.90
21318;DHT22;10818;50.830;6.524;2023-11-21T10:34:39;12.70;99.90
21318;DHT22;10818;50.830;6.524;2023-11-21T10:39:41;12.80;99.90
21318;DHT22;10818;50.830;6.524;2023-11-21T10:44:45;13.30;99.90
21318;DHT22;10818;50.830;6.524;2023-11-21T10:49:49;13.90;99.90
21318;DHT22;10818;50.830;6.524;2023-11-21T10:54:50;14.10;99.90
21318;DHT22;10818;50.830;6.524;2023-11-21T10:59:50;14.10;99.90
21318;DHT22;10818;50.830;6.524;2023-11-21T11:04:52;13.90;99.90
21318;DHT22;10818;50.830;6.524;2023-11-21T11:09:56;13.80;99.90
21318;DHT22;10818;50.830;6.524;2023-11-21T11:14:58;13.70;99.90
21318;DHT22;10818;50.830;6.524;2023-11-21T11:19:59;13.80;99.90
21318;DHT22;10818;50.830;6.524;2023-11-21T11:30:11;13.60;99.90
21318;DHT22;10818;50.830;6.524;2023-11-21T11:35:39;13.50;99.90
21318;DHT22;10818;50.830;6.524;2023-11-21T11:40:39;13.40;99.90
21318;DHT22;10818;50.830;6.524;2023-11-21T11:45:40;13.50;99.90
21318;DHT22;10818;50.830;6.524;2023-11-21T11:56:20;13.80;99.90
21318;DHT22;10818;50.830;6.524;2023-11-21T12:01:23;13.80;99.90
21318;DHT22;10818;50.830;6.524;2023-11-21T12:06:33;13.40;99.90
21318;DHT22;10818;50.830;6.524;2023-11-21T12:11:33;13.40;99.90
21318;DHT22;10818;50.830;6.524;2023-11-21T12:16:35;13.50;99.90
21318;DHT22;10818;50.830;6.524;2023-11-21T12:21:37;13.40;99.90
21318;DHT22;10818;50.830;6.524;2023-11-21T12:26:38;13.60;99.90
21318;DHT22;10818;50.830;6.524;2023-11-21T12:31:38;13.60;99.90
21318;DHT22;10818;50.830;6.524;2023-11-21T12:36:40;13.50;99.90
21318;DHT22;10818;50.830;6.524;2023-11-21T12:41:41;13.70;99.90
21318;DHT22;10818;50.830;6.524;2023-11-21T12:46:42;13.60;99.90
21318;DHT22;10818;50.830;6.524;2023-11-21T12:51:43;13.70;99.90
21318;DHT22;10818;50.830;6.524;2023-11-21T12:56:45;13.80;99.90
21318;DHT22;10818;50.830;6.524;2023-11-21T13:01:47;13.50;99.90
21318;DHT22;10818;50.830;6.524;2023-11-21T13:06:51;13.40;99.90
21318;DHT22;10818;50.830;6.524;2023-11-21T13:11:58;13.00;99.90
21318;DHT22;10818;50.830;6.524;2023-11-21T13:16:59;12.70;99.90
21318;DHT22;10818;50.830;6.524;2023-11-21T13:21:59;12.50;99.90
21318;DHT22;10818;50.830;6.524;2023-11-21T13:27:02;12.30;99.90
21318;DHT22;10818;50.830;6.524;2023-11-21T13:32:03;12.30;99.90
21318;DHT22;10818;50.830;6.524;2023-11-21T13:37:06;12.50;99.90
21318;DHT22;10818;50.830;6.524;2023-11-21T13:42:08;12.40;99.90
21318;DHT22;10818;50.830;6.524;2023-11-21T13:47:09;12.50;99.90
21318;DHT22;10818;50.830;6.524;2023-11-21T13:52:10;12.40;99.90
21318;DHT22;10818;50.830;6.524;2023-11-21T13:57:15;12.20;99.90
21318;DHT22;10818;50.830;6.524;2023-11-21T14:02:16;12.20;99.90
21318;DHT22;10818;50.830;6.524;2023-11-21T14:07:18;12.30;99.90
21318;DHT22;10818;50.830;6.524;2023-11-21T14:12:33;12.10;99.90
21318;DHT22;10818;50.830;6.524;2023-11-21T14:17:36;12.10;99.90
21318;DHT22;10818;50.830;6.524;2023-11-21T14:22:39;12.20;99.90
21318;DHT22;10818;50.830;6.524;2023-11-21T14:27:40;12.30;99.90
21318;DHT22;10818;50.830;6.524;2023-11-21T14:32:40;12.20;99.90
21318;DHT22;10818;50.830;6.524;2023-11-21T14:37:41;12.20;99.90
21318;DHT22;10818;50.830;6.524;2023-11-21T14:42:42;12.20;99.90
21318;DHT22;10818;50.830;6.524;2023-11-21T14:47:43;11.90;99.90
21318;DHT22;10818;50.830;6.524;2023-11-21T14:52:49;12.00;99.90
21318;DHT22;10818;50.830;6.524;2023-11-21T14:57:59;11.90;99.90
21318;DHT22;10818;50.830;6.524;2023-11-21T15:03:04;11.90;99.90
21318;DHT22;10818;50.830;6.524;2023-11-21T15:08:05;11.80;99.90
21318;DHT22;10818;50.830;6.524;2023-11-21T15:13:20;12.00;99.90
21318;DHT22;10818;50.830;6.524;2023-11-21T15:18:23;11.80;99.90
21318;DHT22;10818;50.830;6.524;2023-11-21T15:23:24;11.60;99.90
21318;DHT22;10818;50.830;6.524;2023-11-21T15:28:25;11.70;99.90
21318;DHT22;10818;50.830;6.524;2023-11-21T15:33:25;11.60;99.90
21318;DHT22;10818;50.830;6.524;2023-11-21T15:38:27;11.50;99.90
21318;DHT22;10818;50.830;6.524;2023-11-21T15:43:28;11.50;99.90
21318;DHT22;10818;50.830;6.524;2023-11-21T15:48:29;11.60;99.90
21318;DHT22;10818;50.830;6.524;2023-11-21T15:53:30;11.50;99.90
21318;DHT22;10818;50.830;6.524;2023-11-21T15:58:32;11.50;99.90
21318;DHT22;10818;50.830;6.524;2023-11-21T16:03:33;11.60;99.90
21318;DHT22;10818;50.830;6.524;2023-11-21T16:08:34;11.60;99.90
21318;DHT22;10818;50.830;6.524;2023-11-21T16:13:36;11.60;99.90
21318;DHT22;10818;50.830;6.524;2023-11-21T16:18:38;11.60;99.90
21318;DHT22;10818;50.830;6.524;2023-11-21T16:23:38;11.30;99.90
21318;DHT22;10818;50.830;6.524;2023-11-21T16:28:38;11.10;99.90
21318;DHT22;10818;50.830;6.524;2023-11-21T16:33:41;11.00;99.90
21318;DHT22;10818;50.830;6.524;2023-11-21T16:38:42;10.90;99.90
21318;DHT22;10818;50.830;6.524;2023-11-21T16:43:42;10.60;99.90
21318;DHT22;10818;50.830;6.524;2023-11-21T16:48:43;10.60;99.90
21318;DHT22;10818;50.830;6.524;2023-11-21T16:53:43;10.70;99.90
21318;DHT22;10818;50.830;6.524;2023-11-21T16:58:44;10.80;99.90
21318;DHT22;10818;50.830;6.524;2023-11-21T17:03:45;10.80;99.90
21318;DHT22;10818;50.830;6.524;2023-11-21T17:08:45;10.60;99.90
21318;DHT22;10818;50.830;6.524;2023-11-21T17:13:46;10.60;99.90
21318;DHT22;10818;50.830;6.524;2023-11-21T17:18:46;10.60;99.90
21318;DHT22;10818;50.830;6.524;2023-11-21T17:23:47;10.50;99.90
21318;DHT22;10818;50.830;6.524;2023-11-21T17:28:47;10.60;99.90
21318;DHT22;10818;50.830;6.524;2023-11-21T17:33:48;10.50;99.90
21318;DHT22;10818;50.830;6.524;2023-11-21T17:38:48;10.40;99.90
21318;DHT22;10818;50.830;6.524;2023-11-21T17:43:49;10.30;99.90
21318;DHT22;10818;50.830;6.524;2023-11-21T17:48:50;10.20;99.90
21318;DHT22;10818;50.830;6.524;2023-11-21T17:53:52;10.20;99.90
21318;DHT22;10818;50.830;6.524;2023-11-21T17:58:58;10.00;99.90
21318;DHT22;10818;50.830;6.524;2023-11-21T18:03:59;10.10;99.90
21318;DHT22;10818;50.830;6.524;2023-11-21T18:08:59;10.10;99.90
21318;DHT22;10818;50.830;6.524;2023-11-21T18:14:00;10.00;99.90
21318;DHT22;10818;50.830;6.524;2023-11-21T18:19:06;9.90;99.90
21318;DHT22;10818;50.830;6.524;2023-11-21T18:24:07;10.00;99.90
21318;DHT22;10818;50.830;6.524;2023-11-21T18:29:07;9.90;99.90
21318;DHT22;10818;50.830;6.524;2023-11-21T18:34:08;10.00;99.90
21318;DHT22;10818;50.830;6.524;2023-11-21T18:39:09;10.00;99.90
21318;DHT22;10818;50.830;6.524;2023-11-21T18:44:14;9.90;99.90
21318;DHT22;10818;50.830;6.524;2023-11-21T18:49:15;9.60;99.90
21318;DHT22;10818;50.830;6.524;2023-11-21T18:54:15;9.50;99.90
21318;DHT22;10818;50.830;6.524;2023-11-21T18:59:16;9.30;99.90
21318;DHT22;10818;50.830;6.524;2023-11-21T19:04:16;9.30;99.90
21318;DHT22;10818;50.830;6.524;2023-11-21T19:09:20;9.30;99.90
21318;DHT22;10818;50.830;6.524;2023-11-21T19:14:21;9.20;99.90
21318;DHT22;10818;50.830;6.524;2023-11-21T19:19:22;9.00;99.90
21318;DHT22;10818;50.830;6.524;2023-11-21T19:24:23;8.70;99.90
21318;DHT22;10818;50.830;6.524;2023-11-21T19:29:23;8.70;99.90
21318;DHT22;10818;50.830;6.524;2023-11-21T19:34:23;8.70;99.90
21318;DHT22;10818;50.830;6.524;2023-11-21T19:39:25;8.70;99.90
21318;DHT22;10818;50.830;6.524;2023-11-21T19:44:25;8.70;99.90
21318;DHT22;10818;50.830;6.524;2023-11-21T19:49:26;8.70;99.90
21318;DHT22;10818;50.830;6.524;2023-11-21T19:54:27;8.70;99.90
21318;DHT22;10818;50.830;6.524;2023-11-21T19:59:28;8.40;99.90
21318;DHT22;10818;50.830;6.524;2023-11-21T20:04:29;8.50;99.90
21318;DHT22;10818;50.830;6.524;2023-11-21T20:09:29;8.30;99.90
21318;DHT22;10818;50.830;6.524;2023-11-21T20:14:31;8.30;99.90
21318;DHT22;10818;50.830;6.524;2023-11-21T20:19:32;8.30;99.90
21318;DHT22;10818;50.830;6.524;2023-11-21T20:24:32;8.50;99.90
21318;DHT22;10818;50.830;6.524;2023-11-21T20:29:35;8.40;99.90
21318;DHT22;10818;50.830;6.524;2023-11-21T20:34:38;8.20;99.90
21318;DHT22;10818;50.830;6.524;2023-11-21T20:39:39;8.70;99.90
21318;DHT22;10818;50.830;6.524;2023-11-21T20:44:40;8.20;99.90
21318;DHT22;10818;50.830;6.524;2023-11-21T20:49:40;8.30;99.90
21318;DHT22;10818;50.830;6.524;2023-11-21T20:54:41;8.30;99.90
21318;DHT22;10818;50.830;6.524;2023-11-21T20:59:43;8.10;99.90
21318;DHT22;10818;50.830;6.524;2023-11-21T21:04:43;8.10;99.90
21318;DHT22;10818;50.830;6.524;2023-11-21T21:09:44;7.90;99.90
21318;DHT22;10818;50.830;6.524;2023-11-21T21:14:44;8.10;99.90
21318;DHT22;10818;50.830;6.524;2023-11-21T21:19:45;8.10;99.90
21318;DHT22;10818;50.830;6.524;2023-11-21T21:24:45;8.00;99.90
21318;DHT22;10818;50.830;6.524;2023-11-21T21:29:46;7.90;99.90
21318;DHT22;10818;50.830;6.524;2023-11-21T21:34:46;7.70;99.90
21318;DHT22;10818;50.830;6.524;2023-11-21T21:39:46;7.70;99.90
21318;DHT22;10818;50.830;6.524;2023-11-21T21:44:48;7.50;99.90
21318;DHT22;10818;50.830;6.524;2023-11-21T21:49:49;8.00;99.90
21318;DHT22;10818;50.830;6.524;2023-11-21T21:54:50;7.70;99.90
21318;DHT22;10818;50.830;6.524;2023-11-21T21:59:51;7.80;99.90
21318;DHT22;10818;50.830;6.524;2023-11-21T22:04:52;7.80;99.90
21318;DHT22;10818;50.830;6.524;2023-11-21T22:09:53;7.80;99.90
21318;DHT22;10818;50.830;6.524;2023-11-21T22:14:53;8.00;99.90
21318;DHT22;10818;50.830;6.524;2023-11-21T22:19:54;7.90;99.90
21318;DHT22;10818;50.830;6.524;2023-11-21T22:24:55;8.00;99.90
21318;DHT22;10818;50.830;6.524;2023-11-21T22:29:57;7.80;99.90
21318;DHT22;10818;50.830;6.524;2023-11-21T22:34:58;8.00;99.90
21318;DHT22;10818;50.830;6.524;2023-11-21T22:39:59;7.80;99.90
21318;DHT22;10818;50.830;6.524;2023-11-21T22:45:03;7.80;99.90
21318;DHT22;10818;50.830;6.524;2023-11-21T22:50:04;7.70;99.90
21318;DHT22;10818;50.830;6.524;2023-11-21T22:55:05;7.70;99.90
21318;DHT22;10818;50.830;6.524;2023-11-21T23:00:05;7.80;99.90
21318;DHT22;10818;50.830;6.524;2023-11-21T23:05:12;7.80;99.90
21318;DHT22;10818;50.830;6.524;2023-11-21T23:10:12;7.70;99.90
21318;DHT22;10818;50.830;6.524;2023-11-21T23:15:13;7.80;99.90
21318;DHT22;10818;50.830;6.524;2023-11-21T23:20:14;7.70;99.90
21318;DHT22;10818;50.830;6.524;2023-11-21T23:25:20;7.60;99.90
21318;DHT22;10818;50.830;6.524;2023-11-21T23:30:21;7.60;99.90
21318;DHT22;10818;50.830;6.524;2023-11-21T23:35:22;7.50;99.90
21318;DHT22;10818;50.830;6.524;2023-11-21T23:40:24;7.50;99.90
21318;DHT22;10818;50.830;6.524;2023-11-21T23:45:24;7.40;99.90
21318;DHT22;10818;50.830;6.524;2023-11-21T23:50:28;7.10;99.90
21318;DHT22;10818;50.830;6.524;2023-11-21T23:55:29;6.90;99.90
